sensor_id;sensor_type;location;lat;lon;timestamp;P1;durP1;ratioP1;P2;durP2;ratioP2
4053;SDS011;2042;47.956;9.222;2024-01-07T00:02:14;7.47;;;4.97;;
4053;SDS011;2042;47.956;9.222;2024-01-07T00:04:40;5.90;;;5.05;;
4053;SDS011;2042;47.956;9.222;2024-01-07T00:07:05;5.57;;;4.97;;
4053;SDS011;2042;47.956;9.222;2024-01-07T00:09:32;6.57;;;5.40;;
4053;SDS011;2042;47.956;9.222;2024-01-07T00:11:57;6.13;;;5.33;;
4053;SDS011;2042;47.956;9.222;2024-01-07T00:14:23;5.53;;;4.10;;
4053;SDS011;2042;47.956;9.222;2024-01-07T00:16:48;4.70;;;3.73;;
4053;SDS011;2042;47.956;9.222;2024-01-07T00:19:14;6.10;;;4.90;;
4053;SDS011;2042;47.956;9.222;2024-01-07T00:21:40;5.17;;;4.60;;
4053;SDS011;2042;47.956;9.222;2024-01-07T00:24:05;5.13;;;4.63;;
4053;SDS011;2042;47.956;9.222;2024-01-07T00:26:31;5.87;;;3.47;;
4053;SDS011;2042;47.956;9.222;2024-01-07T00:28:57;5.53;;;4.50;;
4053;SDS011;2042;47.956;9.222;2024-01-07T00:31:22;4.17;;;3.20;;
4053;SDS011;2042;47.956;9.222;2024-01-07T00:33:48;5.73;;;4.10;;
4053;SDS011;2042;47.956;9.222;2024-01-07T00:36:13;5.80;;;3.90;;
4053;SDS011;2042;47.956;9.222;2024-01-07T00:38:39;5.20;;;3.50;;
4053;SDS011;2042;47.956;9.222;2024-01-07T00:41:05;3.80;;;3.40;;
4053;SDS011;2042;47.956;9.222;2024-01-07T00:43:31;3.93;;;3.33;;
4053;SDS011;2042;47.956;9.222;2024-01-07T00:45:56;3.40;;;3.07;;
4053;SDS011;2042;47.956;9.222;2024-01-07T00:48:22;4.03;;;3.37;;
4053;SDS011;2042;47.956;9.222;2024-01-07T00:50:48;5.73;;;3.73;;
4053;SDS011;2042;47.956;9.222;2024-01-07T00:53:13;4.67;;;4.17;;
4053;SDS011;2042;47.956;9.222;2024-01-07T00:55:39;4.60;;;3.83;;
4053;SDS011;2042;47.956;9.222;2024-01-07T00:58:04;4.20;;;3.20;;
4053;SDS011;2042;47.956;9.222;2024-01-07T01:00:30;4.03;;;3.63;;
4053;SDS011;2042;47.956;9.222;2024-01-07T01:02:56;3.90;;;3.37;;
4053;SDS011;2042;47.956;9.222;2024-01-07T01:05:21;6.00;;;4.30;;
4053;SDS011;2042;47.956;9.222;2024-01-07T01:07:47;9.10;;;4.70;;
4053;SDS011;2042;47.956;9.222;2024-01-07T01:10:13;6.37;;;4.50;;
4053;SDS011;2042;47.956;9.222;2024-01-07T01:12:41;4.07;;;3.40;;
4053;SDS011;2042;47.956;9.222;2024-01-07T01:15:08;5.23;;;3.67;;
4053;SDS011;2042;47.956;9.222;2024-01-07T01:17:34;4.40;;;3.70;;
4053;SDS011;2042;47.956;9.222;2024-01-07T01:19:59;3.80;;;3.20;;
4053;SDS011;2042;47.956;9.222;2024-01-07T01:22:25;4.13;;;3.70;;
4053;SDS011;2042;47.956;9.222;2024-01-07T01:24:50;4.77;;;3.60;;
4053;SDS011;2042;47.956;9.222;2024-01-07T01:27:18;6.17;;;3.70;;
4053;SDS011;2042;47.956;9.222;2024-01-07T01:29:43;3.90;;;3.20;;
4053;SDS011;2042;47.956;9.222;2024-01-07T01:32:09;4.53;;;3.23;;
4053;SDS011;2042;47.956;9.222;2024-01-07T01:34:35;4.27;;;3.53;;
4053;SDS011;2042;47.956;9.222;2024-01-07T01:37:01;4.23;;;3.50;;
4053;SDS011;2042;47.956;9.222;2024-01-07T01:39:28;3.80;;;3.40;;
4053;SDS011;2042;47.956;9.222;2024-01-07T01:41:54;3.30;;;3.00;;
4053;SDS011;2042;47.956;9.222;2024-01-07T01:44:20;4.27;;;3.00;;
4053;SDS011;2042;47.956;9.222;2024-01-07T01:46:46;4.00;;;3.10;;
4053;SDS011;2042;47.956;9.222;2024-01-07T01:49:13;5.23;;;3.20;;
4053;SDS011;2042;47.956;9.222;2024-01-07T01:51:39;4.67;;;3.97;;
4053;SDS011;2042;47.956;9.222;2024-01-07T01:54:04;4.63;;;4.00;;
4053;SDS011;2042;47.956;9.222;2024-01-07T01:56:31;3.60;;;3.23;;
4053;SDS011;2042;47.956;9.222;2024-01-07T01:58:57;3.97;;;3.00;;
4053;SDS011;2042;47.956;9.222;2024-01-07T02:01:24;4.50;;;3.27;;
4053;SDS011;2042;47.956;9.222;2024-01-07T02:03:50;4.17;;;3.07;;
4053;SDS011;2042;47.956;9.222;2024-01-07T02:06:17;3.20;;;2.70;;
4053;SDS011;2042;47.956;9.222;2024-01-07T02:08:43;4.03;;;3.30;;
4053;SDS011;2042;47.956;9.222;2024-01-07T02:11:14;4.10;;;3.17;;
4053;SDS011;2042;47.956;9.222;2024-01-07T02:13:43;4.53;;;3.03;;
4053;SDS011;2042;47.956;9.222;2024-01-07T02:16:09;3.73;;;3.40;;
4053;SDS011;2042;47.956;9.222;2024-01-07T02:18:35;4.23;;;2.80;;
4053;SDS011;2042;47.956;9.222;2024-01-07T02:21:01;5.60;;;3.30;;
4053;SDS011;2042;47.956;9.222;2024-01-07T02:23:27;3.83;;;2.50;;
4053;SDS011;2042;47.956;9.222;2024-01-07T02:25:53;3.30;;;3.00;;
4053;SDS011;2042;47.956;9.222;2024-01-07T02:28:18;4.50;;;3.00;;
4053;SDS011;2042;47.956;9.222;2024-01-07T02:30:44;3.97;;;3.60;;
4053;SDS011;2042;47.956;9.222;2024-01-07T02:33:09;3.63;;;3.30;;
4053;SDS011;2042;47.956;9.222;2024-01-07T02:35:35;3.77;;;2.83;;
4053;SDS011;2042;47.956;9.222;2024-01-07T02:38:01;3.90;;;2.90;;
4053;SDS011;2042;47.956;9.222;2024-01-07T02:40:26;4.73;;;3.80;;
4053;SDS011;2042;47.956;9.222;2024-01-07T02:42:52;3.73;;;3.33;;
4053;SDS011;2042;47.956;9.222;2024-01-07T02:45:18;4.53;;;2.73;;
4053;SDS011;2042;47.956;9.222;2024-01-07T02:47:44;4.30;;;3.90;;
4053;SDS011;2042;47.956;9.222;2024-01-07T02:50:09;4.87;;;3.20;;
4053;SDS011;2042;47.956;9.222;2024-01-07T02:52:35;3.00;;;2.70;;
4053;SDS011;2042;47.956;9.222;2024-01-07T02:55:00;3.70;;;2.87;;
4053;SDS011;2042;47.956;9.222;2024-01-07T02:57:29;3.60;;;2.90;;
4053;SDS011;2042;47.956;9.222;2024-01-07T02:59:55;4.13;;;3.13;;
4053;SDS011;2042;47.956;9.222;2024-01-07T03:02:20;3.70;;;2.90;;
4053;SDS011;2042;47.956;9.222;2024-01-07T03:04:46;6.37;;;4.20;;
4053;SDS011;2042;47.956;9.222;2024-01-07T03:07:11;3.50;;;2.60;;
4053;SDS011;2042;47.956;9.222;2024-01-07T03:09:37;4.00;;;2.83;;
4053;SDS011;2042;47.956;9.222;2024-01-07T03:12:03;4.33;;;2.90;;
4053;SDS011;2042;47.956;9.222;2024-01-07T03:14:29;4.60;;;3.40;;
4053;SDS011;2042;47.956;9.222;2024-01-07T03:16:55;5.20;;;4.13;;
4053;SDS011;2042;47.956;9.222;2024-01-07T03:19:20;4.60;;;3.30;;
4053;SDS011;2042;47.956;9.222;2024-01-07T03:21:47;3.23;;;2.93;;
4053;SDS011;2042;47.956;9.222;2024-01-07T03:24:13;3.30;;;3.00;;
4053;SDS011;2042;47.956;9.222;2024-01-07T03:26:39;4.23;;;2.63;;
4053;SDS011;2042;47.956;9.222;2024-01-07T03:29:04;4.60;;;3.70;;
4053;SDS011;2042;47.956;9.222;2024-01-07T03:31:30;5.40;;;3.47;;
4053;SDS011;2042;47.956;9.222;2024-01-07T03:33:56;5.00;;;3.80;;
4053;SDS011;2042;47.956;9.222;2024-01-07T03:36:22;5.13;;;3.70;;
4053;SDS011;2042;47.956;9.222;2024-01-07T03:38:47;4.50;;;2.93;;
4053;SDS011;2042;47.956;9.222;2024-01-07T03:41:16;3.50;;;3.10;;
4053;SDS011;2042;47.956;9.222;2024-01-07T03:43:46;4.83;;;4.23;;
4053;SDS011;2042;47.956;9.222;2024-01-07T03:46:13;3.73;;;2.63;;
4053;SDS011;2042;47.956;9.222;2024-01-07T03:48:40;4.37;;;3.97;;
4053;SDS011;2042;47.956;9.222;2024-01-07T03:51:06;4.10;;;3.13;;
4053;SDS011;2042;47.956;9.222;2024-01-07T03:53:32;4.73;;;3.30;;
4053;SDS011;2042;47.956;9.222;2024-01-07T03:55:58;3.80;;;3.37;;
4053;SDS011;2042;47.956;9.222;2024-01-07T03:58:23;3.43;;;2.70;;
4053;SDS011;2042;47.956;9.222;2024-01-07T04:00:49;4.87;;;3.50;;
4053;SDS011;2042;47.956;9.222;2024-01-07T04:03:14;3.43;;;2.77;;
4053;SDS011;2042;47.956;9.222;2024-01-07T04:05:40;4.90;;;3.67;;
4053;SDS011;2042;47.956;9.222;2024-01-07T04:08:08;3.50;;;2.93;;
4053;SDS011;2042;47.956;9.222;2024-01-07T04:10:35;5.20;;;4.10;;
4053;SDS011;2042;47.956;9.222;2024-01-07T04:13:01;5.10;;;3.20;;
4053;SDS011;2042;47.956;9.222;2024-01-07T04:15:26;4.83;;;3.07;;
4053;SDS011;2042;47.956;9.222;2024-01-07T04:17:52;5.20;;;3.90;;
4053;SDS011;2042;47.956;9.222;2024-01-07T04:20:18;4.30;;;3.20;;
4053;SDS011;2042;47.956;9.222;2024-01-07T04:22:43;5.37;;;3.30;;
4053;SDS011;2042;47.956;9.222;2024-01-07T04:25:09;4.50;;;4.00;;
4053;SDS011;2042;47.956;9.222;2024-01-07T04:27:35;5.47;;;3.77;;
4053;SDS011;2042;47.956;9.222;2024-01-07T04:30:02;5.20;;;3.43;;
4053;SDS011;2042;47.956;9.222;2024-01-07T04:32:28;10.00;;;4.07;;
4053;SDS011;2042;47.956;9.222;2024-01-07T04:34:54;5.07;;;4.07;;
4053;SDS011;2042;47.956;9.222;2024-01-07T04:37:21;5.17;;;4.10;;
4053;SDS011;2042;47.956;9.222;2024-01-07T04:39:46;5.63;;;4.20;;
4053;SDS011;2042;47.956;9.222;2024-01-07T04:42:12;4.07;;;3.53;;
4053;SDS011;2042;47.956;9.222;2024-01-07T04:44:38;4.00;;;3.60;;
4053;SDS011;2042;47.956;9.222;2024-01-07T04:47:04;4.83;;;3.17;;
4053;SDS011;2042;47.956;9.222;2024-01-07T04:49:30;4.40;;;3.63;;
4053;SDS011;2042;47.956;9.222;2024-01-07T04:51:55;5.13;;;3.90;;
4053;SDS011;2042;47.956;9.222;2024-01-07T04:54:21;5.40;;;3.87;;
4053;SDS011;2042;47.956;9.222;2024-01-07T04:56:47;5.67;;;3.93;;
4053;SDS011;2042;47.956;9.222;2024-01-07T04:59:12;4.50;;;3.57;;
4053;SDS011;2042;47.956;9.222;2024-01-07T05:01:38;6.60;;;4.23;;
4053;SDS011;2042;47.956;9.222;2024-01-07T05:04:04;5.73;;;2.80;;
4053;SDS011;2042;47.956;9.222;2024-01-07T05:06:30;5.23;;;4.03;;
4053;SDS011;2042;47.956;9.222;2024-01-07T05:08:55;4.10;;;3.53;;
4053;SDS011;2042;47.956;9.222;2024-01-07T05:11:21;4.50;;;3.43;;
4053;SDS011;2042;47.956;9.222;2024-01-07T05:13:47;5.93;;;4.30;;
4053;SDS011;2042;47.956;9.222;2024-01-07T05:16:17;4.40;;;3.70;;
4053;SDS011;2042;47.956;9.222;2024-01-07T05:18:44;3.40;;;2.93;;
4053;SDS011;2042;47.956;9.222;2024-01-07T05:21:13;3.70;;;3.17;;
4053;SDS011;2042;47.956;9.222;2024-01-07T05:23:47;4.10;;;3.70;;
4053;SDS011;2042;47.956;9.222;2024-01-07T05:26:13;5.73;;;4.30;;
4053;SDS011;2042;47.956;9.222;2024-01-07T05:28:39;6.60;;;3.73;;
4053;SDS011;2042;47.956;9.222;2024-01-07T05:31:04;3.57;;;3.07;;
4053;SDS011;2042;47.956;9.222;2024-01-07T05:33:30;6.00;;;3.83;;
4053;SDS011;2042;47.956;9.222;2024-01-07T05:35:55;3.80;;;3.13;;
4053;SDS011;2042;47.956;9.222;2024-01-07T05:38:21;5.27;;;3.40;;
4053;SDS011;2042;47.956;9.222;2024-01-07T05:40:47;6.23;;;3.30;;
4053;SDS011;2042;47.956;9.222;2024-01-07T05:43:12;4.80;;;4.07;;
4053;SDS011;2042;47.956;9.222;2024-01-07T05:45:38;4.40;;;3.70;;
4053;SDS011;2042;47.956;9.222;2024-01-07T05:48:04;3.97;;;2.70;;
4053;SDS011;2042;47.956;9.222;2024-01-07T05:50:29;4.57;;;3.50;;
4053;SDS011;2042;47.956;9.222;2024-01-07T05:52:55;3.40;;;2.67;;
4053;SDS011;2042;47.956;9.222;2024-01-07T05:55:21;4.20;;;3.57;;
4053;SDS011;2042;47.956;9.222;2024-01-07T05:57:46;4.10;;;3.67;;
4053;SDS011;2042;47.956;9.222;2024-01-07T06:00:12;6.43;;;3.43;;
4053;SDS011;2042;47.956;9.222;2024-01-07T06:02:38;6.20;;;3.23;;
4053;SDS011;2042;47.956;9.222;2024-01-07T06:05:05;5.37;;;2.90;;
4053;SDS011;2042;47.956;9.222;2024-01-07T06:07:30;4.47;;;2.80;;
4053;SDS011;2042;47.956;9.222;2024-01-07T06:09:56;3.83;;;3.10;;
4053;SDS011;2042;47.956;9.222;2024-01-07T06:12:22;4.73;;;3.67;;
4053;SDS011;2042;47.956;9.222;2024-01-07T06:14:48;3.43;;;3.13;;
4053;SDS011;2042;47.956;9.222;2024-01-07T06:17:13;3.30;;;3.00;;
4053;SDS011;2042;47.956;9.222;2024-01-07T06:19:39;3.30;;;3.00;;
4053;SDS011;2042;47.956;9.222;2024-01-07T06:22:05;3.40;;;2.73;;
4053;SDS011;2042;47.956;9.222;2024-01-07T06:24:30;6.50;;;2.47;;
4053;SDS011;2042;47.956;9.222;2024-01-07T06:26:56;6.47;;;3.87;;
4053;SDS011;2042;47.956;9.222;2024-01-07T06:29:21;5.40;;;4.27;;
4053;SDS011;2042;47.956;9.222;2024-01-07T06:31:47;4.07;;;3.13;;
4053;SDS011;2042;47.956;9.222;2024-01-07T06:34:13;3.60;;;2.50;;
4053;SDS011;2042;47.956;9.222;2024-01-07T06:36:40;2.93;;;2.50;;
4053;SDS011;2042;47.956;9.222;2024-01-07T06:39:06;3.53;;;3.03;;
4053;SDS011;2042;47.956;9.222;2024-01-07T06:41:33;4.60;;;3.60;;
4053;SDS011;2042;47.956;9.222;2024-01-07T06:43:59;3.57;;;2.77;;
4053;SDS011;2042;47.956;9.222;2024-01-07T06:46:25;3.23;;;2.50;;
4053;SDS011;2042;47.956;9.222;2024-01-07T06:48:51;3.40;;;2.70;;
4053;SDS011;2042;47.956;9.222;2024-01-07T06:51:16;4.83;;;3.93;;
4053;SDS011;2042;47.956;9.222;2024-01-07T06:53:42;4.93;;;3.57;;
4053;SDS011;2042;47.956;9.222;2024-01-07T06:56:07;4.70;;;3.60;;
4053;SDS011;2042;47.956;9.222;2024-01-07T06:58:33;4.00;;;2.97;;
4053;SDS011;2042;47.956;9.222;2024-01-07T07:00:58;4.43;;;3.90;;
4053;SDS011;2042;47.956;9.222;2024-01-07T07:03:24;4.20;;;3.70;;
4053;SDS011;2042;47.956;9.222;2024-01-07T07:05:50;7.80;;;3.63;;
4053;SDS011;2042;47.956;9.222;2024-01-07T07:08:16;4.50;;;4.00;;
4053;SDS011;2042;47.956;9.222;2024-01-07T07:10:41;5.50;;;4.60;;
4053;SDS011;2042;47.956;9.222;2024-01-07T07:13:07;5.10;;;4.07;;
4053;SDS011;2042;47.956;9.222;2024-01-07T07:15:33;5.60;;;4.83;;
4053;SDS011;2042;47.956;9.222;2024-01-07T07:17:59;7.13;;;5.13;;
4053;SDS011;2042;47.956;9.222;2024-01-07T07:20:25;9.50;;;4.20;;
4053;SDS011;2042;47.956;9.222;2024-01-07T07:22:50;5.73;;;4.17;;
4053;SDS011;2042;47.956;9.222;2024-01-07T07:25:16;6.40;;;3.97;;
4053;SDS011;2042;47.956;9.222;2024-01-07T07:27:42;6.77;;;5.60;;
4053;SDS011;2042;47.956;9.222;2024-01-07T07:30:08;7.37;;;5.20;;
4053;SDS011;2042;47.956;9.222;2024-01-07T07:32:34;7.63;;;4.50;;
4053;SDS011;2042;47.956;9.222;2024-01-07T07:35:00;5.67;;;3.87;;
4053;SDS011;2042;47.956;9.222;2024-01-07T07:37:26;8.35;;;5.28;;
4053;SDS011;2042;47.956;9.222;2024-01-07T07:39:52;6.13;;;4.40;;
4053;SDS011;2042;47.956;9.222;2024-01-07T07:42:17;6.97;;;4.60;;
4053;SDS011;2042;47.956;9.222;2024-01-07T07:44:43;5.50;;;4.10;;
4053;SDS011;2042;47.956;9.222;2024-01-07T07:47:09;7.27;;;4.63;;
4053;SDS011;2042;47.956;9.222;2024-01-07T07:49:36;11.50;;;7.68;;
4053;SDS011;2042;47.956;9.222;2024-01-07T07:52:05;11.70;;;6.40;;
4053;SDS011;2042;47.956;9.222;2024-01-07T07:54:34;8.27;;;5.30;;
4053;SDS011;2042;47.956;9.222;2024-01-07T07:57:00;8.83;;;5.50;;
4053;SDS011;2042;47.956;9.222;2024-01-07T07:59:25;7.50;;;5.30;;
4053;SDS011;2042;47.956;9.222;2024-01-07T08:01:51;8.70;;;5.50;;
4053;SDS011;2042;47.956;9.222;2024-01-07T08:04:17;11.00;;;7.13;;
4053;SDS011;2042;47.956;9.222;2024-01-07T08:06:43;9.10;;;6.90;;
4053;SDS011;2042;47.956;9.222;2024-01-07T08:09:10;6.63;;;4.40;;
4053;SDS011;2042;47.956;9.222;2024-01-07T08:11:35;9.63;;;4.87;;
4053;SDS011;2042;47.956;9.222;2024-01-07T08:14:01;6.27;;;3.97;;
4053;SDS011;2042;47.956;9.222;2024-01-07T08:16:28;9.03;;;4.87;;
4053;SDS011;2042;47.956;9.222;2024-01-07T08:18:53;10.30;;;5.13;;
4053;SDS011;2042;47.956;9.222;2024-01-07T08:21:23;9.23;;;5.80;;
4053;SDS011;2042;47.956;9.222;2024-01-07T08:23:49;9.67;;;6.50;;
4053;SDS011;2042;47.956;9.222;2024-01-07T08:26:19;6.93;;;6.23;;
4053;SDS011;2042;47.956;9.222;2024-01-07T08:28:45;10.20;;;5.83;;
4053;SDS011;2042;47.956;9.222;2024-01-07T08:31:10;8.93;;;6.07;;
4053;SDS011;2042;47.956;9.222;2024-01-07T08:33:36;8.63;;;5.70;;
4053;SDS011;2042;47.956;9.222;2024-01-07T08:36:02;9.23;;;6.73;;
4053;SDS011;2042;47.956;9.222;2024-01-07T08:38:27;11.20;;;5.63;;
4053;SDS011;2042;47.956;9.222;2024-01-07T08:40:53;7.90;;;5.73;;
4053;SDS011;2042;47.956;9.222;2024-01-07T08:43:18;11.50;;;5.30;;
4053;SDS011;2042;47.956;9.222;2024-01-07T08:45:44;7.90;;;6.10;;
4053;SDS011;2042;47.956;9.222;2024-01-07T08:48:10;6.63;;;5.90;;
4053;SDS011;2042;47.956;9.222;2024-01-07T08:50:37;8.33;;;5.10;;
4053;SDS011;2042;47.956;9.222;2024-01-07T08:53:03;9.33;;;6.27;;
4053;SDS011;2042;47.956;9.222;2024-01-07T08:55:29;8.30;;;5.90;;
4053;SDS011;2042;47.956;9.222;2024-01-07T08:57:54;7.27;;;5.30;;
4053;SDS011;2042;47.956;9.222;2024-01-07T09:00:20;7.90;;;5.97;;
4053;SDS011;2042;47.956;9.222;2024-01-07T09:02:50;7.60;;;5.87;;
4053;SDS011;2042;47.956;9.222;2024-01-07T09:05:16;6.03;;;5.03;;
4053;SDS011;2042;47.956;9.222;2024-01-07T09:07:42;7.00;;;6.00;;
4053;SDS011;2042;47.956;9.222;2024-01-07T09:10:08;5.30;;;4.77;;
4053;SDS011;2042;47.956;9.222;2024-01-07T09:12:35;8.80;;;4.30;;
4053;SDS011;2042;47.956;9.222;2024-01-07T09:15:02;6.87;;;5.50;;
4053;SDS011;2042;47.956;9.222;2024-01-07T09:17:29;6.00;;;5.07;;
4053;SDS011;2042;47.956;9.222;2024-01-07T09:19:56;9.17;;;5.30;;
4053;SDS011;2042;47.956;9.222;2024-01-07T09:22:22;6.50;;;5.43;;
4053;SDS011;2042;47.956;9.222;2024-01-07T09:24:47;6.67;;;4.30;;
4053;SDS011;2042;47.956;9.222;2024-01-07T09:27:13;5.53;;;4.30;;
4053;SDS011;2042;47.956;9.222;2024-01-07T09:29:39;5.30;;;4.60;;
4053;SDS011;2042;47.956;9.222;2024-01-07T09:32:05;9.60;;;5.70;;
4053;SDS011;2042;47.956;9.222;2024-01-07T09:34:31;7.80;;;5.90;;
4053;SDS011;2042;47.956;9.222;2024-01-07T09:36:56;5.63;;;4.87;;
4053;SDS011;2042;47.956;9.222;2024-01-07T09:39:22;6.27;;;5.27;;
4053;SDS011;2042;47.956;9.222;2024-01-07T09:41:47;8.43;;;6.70;;
4053;SDS011;2042;47.956;9.222;2024-01-07T09:44:13;7.10;;;6.40;;
4053;SDS011;2042;47.956;9.222;2024-01-07T09:46:39;5.50;;;4.83;;
4053;SDS011;2042;47.956;9.222;2024-01-07T09:49:06;6.80;;;5.23;;
4053;SDS011;2042;47.956;9.222;2024-01-07T09:51:34;8.17;;;6.20;;
4053;SDS011;2042;47.956;9.222;2024-01-07T09:54:02;8.27;;;6.30;;
4053;SDS011;2042;47.956;9.222;2024-01-07T09:56:33;8.93;;;7.25;;
4053;SDS011;2042;47.956;9.222;2024-01-07T09:59:07;7.20;;;5.57;;
4053;SDS011;2042;47.956;9.222;2024-01-07T10:01:33;8.20;;;5.77;;
4053;SDS011;2042;47.956;9.222;2024-01-07T10:04:00;7.37;;;6.33;;
4053;SDS011;2042;47.956;9.222;2024-01-07T10:06:26;7.10;;;5.90;;
4053;SDS011;2042;47.956;9.222;2024-01-07T10:08:52;9.80;;;7.10;;
4053;SDS011;2042;47.956;9.222;2024-01-07T10:11:17;6.57;;;5.80;;
4053;SDS011;2042;47.956;9.222;2024-01-07T10:13:46;8.17;;;6.00;;
4053;SDS011;2042;47.956;9.222;2024-01-07T10:16:17;10.13;;;6.57;;
4053;SDS011;2042;47.956;9.222;2024-01-07T10:18:43;9.23;;;7.03;;
4053;SDS011;2042;47.956;9.222;2024-01-07T10:21:08;11.80;;;9.13;;
4053;SDS011;2042;47.956;9.222;2024-01-07T10:23:34;9.37;;;7.27;;
4053;SDS011;2042;47.956;9.222;2024-01-07T10:26:00;9.80;;;6.73;;
4053;SDS011;2042;47.956;9.222;2024-01-07T10:28:27;9.90;;;7.73;;
4053;SDS011;2042;47.956;9.222;2024-01-07T10:30:53;8.40;;;6.40;;
4053;SDS011;2042;47.956;9.222;2024-01-07T10:33:19;10.00;;;7.70;;
4053;SDS011;2042;47.956;9.222;2024-01-07T10:36:05;8.80;;;6.77;;
4053;SDS011;2042;47.956;9.222;2024-01-07T10:38:31;10.07;;;6.73;;
4053;SDS011;2042;47.956;9.222;2024-01-07T10:41:00;13.83;;;7.50;;
4053;SDS011;2042;47.956;9.222;2024-01-07T10:43:30;9.57;;;7.13;;
4053;SDS011;2042;47.956;9.222;2024-01-07T10:45:56;11.60;;;8.40;;
4053;SDS011;2042;47.956;9.222;2024-01-07T10:48:27;11.57;;;7.90;;
4053;SDS011;2042;47.956;9.222;2024-01-07T10:51:00;10.00;;;7.30;;
4053;SDS011;2042;47.956;9.222;2024-01-07T10:53:27;9.40;;;5.97;;
4053;SDS011;2042;47.956;9.222;2024-01-07T10:56:03;10.73;;;7.47;;
4053;SDS011;2042;47.956;9.222;2024-01-07T10:58:31;9.80;;;7.27;;
4053;SDS011;2042;47.956;9.222;2024-01-07T11:00:59;9.73;;;6.73;;
4053;SDS011;2042;47.956;9.222;2024-01-07T11:03:31;9.70;;;7.87;;
4053;SDS011;2042;47.956;9.222;2024-01-07T11:06:20;9.50;;;6.63;;
4053;SDS011;2042;47.956;9.222;2024-01-07T11:08:58;7.90;;;6.50;;
4053;SDS011;2042;47.956;9.222;2024-01-07T11:11:46;11.47;;;7.10;;
4053;SDS011;2042;47.956;9.222;2024-01-07T11:17:01;11.60;;;8.37;;
4053;SDS011;2042;47.956;9.222;2024-01-07T11:19:28;9.90;;;7.20;;
4053;SDS011;2042;47.956;9.222;2024-01-07T11:22:20;7.70;;;6.90;;
4053;SDS011;2042;47.956;9.222;2024-01-07T11:24:47;9.03;;;6.47;;
4053;SDS011;2042;47.956;9.222;2024-01-07T11:27:12;9.60;;;6.73;;
4053;SDS011;2042;47.956;9.222;2024-01-07T11:29:38;10.43;;;6.50;;
4053;SDS011;2042;47.956;9.222;2024-01-07T11:32:05;5.87;;;5.27;;
4053;SDS011;2042;47.956;9.222;2024-01-07T11:34:40;7.40;;;6.40;;
4053;SDS011;2042;47.956;9.222;2024-01-07T11:37:14;9.33;;;6.17;;
4053;SDS011;2042;47.956;9.222;2024-01-07T11:39:44;6.23;;;5.43;;
4053;SDS011;2042;47.956;9.222;2024-01-07T11:42:10;5.97;;;4.13;;
4053;SDS011;2042;47.956;9.222;2024-01-07T11:44:37;9.77;;;6.00;;
4053;SDS011;2042;47.956;9.222;2024-01-07T11:47:06;9.53;;;6.37;;
4053;SDS011;2042;47.956;9.222;2024-01-07T11:49:32;10.23;;;6.57;;
4053;SDS011;2042;47.956;9.222;2024-01-07T11:51:58;7.50;;;5.70;;
4053;SDS011;2042;47.956;9.222;2024-01-07T11:54:26;10.20;;;5.73;;
4053;SDS011;2042;47.956;9.222;2024-01-07T11:56:52;12.10;;;9.40;;
4053;SDS011;2042;47.956;9.222;2024-01-07T11:59:19;9.17;;;5.90;;
4053;SDS011;2042;47.956;9.222;2024-01-07T12:01:45;8.23;;;6.60;;
4053;SDS011;2042;47.956;9.222;2024-01-07T12:04:10;10.33;;;7.00;;
4053;SDS011;2042;47.956;9.222;2024-01-07T12:06:37;8.47;;;5.57;;
4053;SDS011;2042;47.956;9.222;2024-01-07T12:09:04;10.00;;;6.53;;
4053;SDS011;2042;47.956;9.222;2024-01-07T12:11:29;9.80;;;6.30;;
4053;SDS011;2042;47.956;9.222;2024-01-07T12:13:56;8.93;;;6.33;;
4053;SDS011;2042;47.956;9.222;2024-01-07T12:16:22;8.47;;;6.43;;
4053;SDS011;2042;47.956;9.222;2024-01-07T12:18:48;11.00;;;6.33;;
4053;SDS011;2042;47.956;9.222;2024-01-07T12:21:20;6.27;;;5.10;;
4053;SDS011;2042;47.956;9.222;2024-01-07T12:23:48;8.80;;;6.07;;
4053;SDS011;2042;47.956;9.222;2024-01-07T12:26:17;9.30;;;5.40;;
4053;SDS011;2042;47.956;9.222;2024-01-07T12:28:51;9.67;;;6.43;;
4053;SDS011;2042;47.956;9.222;2024-01-07T12:31:19;12.67;;;7.53;;
4053;SDS011;2042;47.956;9.222;2024-01-07T12:33:46;7.67;;;5.80;;
4053;SDS011;2042;47.956;9.222;2024-01-07T12:36:12;8.07;;;5.93;;
4053;SDS011;2042;47.956;9.222;2024-01-07T12:38:37;8.50;;;6.00;;
4053;SDS011;2042;47.956;9.222;2024-01-07T12:41:03;8.40;;;7.10;;
4053;SDS011;2042;47.956;9.222;2024-01-07T12:43:30;8.03;;;5.60;;
4053;SDS011;2042;47.956;9.222;2024-01-07T12:45:56;7.37;;;6.03;;
4053;SDS011;2042;47.956;9.222;2024-01-07T12:48:23;9.30;;;6.50;;
4053;SDS011;2042;47.956;9.222;2024-01-07T12:50:48;8.13;;;6.00;;
4053;SDS011;2042;47.956;9.222;2024-01-07T12:53:14;7.73;;;4.97;;
4053;SDS011;2042;47.956;9.222;2024-01-07T12:55:40;9.20;;;5.43;;
4053;SDS011;2042;47.956;9.222;2024-01-07T12:58:06;7.83;;;6.20;;
4053;SDS011;2042;47.956;9.222;2024-01-07T13:00:32;6.80;;;5.30;;
4053;SDS011;2042;47.956;9.222;2024-01-07T13:02:59;6.57;;;5.20;;
4053;SDS011;2042;47.956;9.222;2024-01-07T13:05:24;9.70;;;5.50;;
4053;SDS011;2042;47.956;9.222;2024-01-07T13:07:50;7.37;;;4.87;;
4053;SDS011;2042;47.956;9.222;2024-01-07T13:10:16;7.33;;;5.57;;
4053;SDS011;2042;47.956;9.222;2024-01-07T13:12:41;8.50;;;5.27;;
4053;SDS011;2042;47.956;9.222;2024-01-07T13:15:07;13.00;;;6.57;;
4053;SDS011;2042;47.956;9.222;2024-01-07T13:17:33;7.27;;;4.80;;
4053;SDS011;2042;47.956;9.222;2024-01-07T13:19:59;8.07;;;5.07;;
4053;SDS011;2042;47.956;9.222;2024-01-07T13:22:26;6.67;;;5.50;;
4053;SDS011;2042;47.956;9.222;2024-01-07T13:24:52;12.97;;;6.50;;
4053;SDS011;2042;47.956;9.222;2024-01-07T13:27:19;7.13;;;4.50;;
4053;SDS011;2042;47.956;9.222;2024-01-07T13:29:47;8.00;;;5.17;;
4053;SDS011;2042;47.956;9.222;2024-01-07T13:32:12;8.10;;;6.50;;
4053;SDS011;2042;47.956;9.222;2024-01-07T13:34:44;7.50;;;5.47;;
4053;SDS011;2042;47.956;9.222;2024-01-07T13:37:10;7.00;;;5.80;;
4053;SDS011;2042;47.956;9.222;2024-01-07T13:39:37;5.40;;;4.57;;
4053;SDS011;2042;47.956;9.222;2024-01-07T13:42:03;6.97;;;5.03;;
4053;SDS011;2042;47.956;9.222;2024-01-07T13:44:29;7.47;;;5.30;;
4053;SDS011;2042;47.956;9.222;2024-01-07T13:46:55;6.30;;;4.40;;
4053;SDS011;2042;47.956;9.222;2024-01-07T13:49:21;5.67;;;4.47;;
4053;SDS011;2042;47.956;9.222;2024-01-07T13:51:46;7.53;;;5.20;;
4053;SDS011;2042;47.956;9.222;2024-01-07T13:54:12;9.53;;;4.87;;
4053;SDS011;2042;47.956;9.222;2024-01-07T13:56:45;5.87;;;4.50;;
4053;SDS011;2042;47.956;9.222;2024-01-07T13:59:11;6.33;;;4.57;;
4053;SDS011;2042;47.956;9.222;2024-01-07T14:01:37;4.33;;;3.93;;
4053;SDS011;2042;47.956;9.222;2024-01-07T14:04:04;6.33;;;5.10;;
4053;SDS011;2042;47.956;9.222;2024-01-07T14:06:30;8.50;;;5.07;;
4053;SDS011;2042;47.956;9.222;2024-01-07T14:08:55;9.13;;;6.23;;
4053;SDS011;2042;47.956;9.222;2024-01-07T14:11:22;7.83;;;4.50;;
4053;SDS011;2042;47.956;9.222;2024-01-07T14:13:47;5.20;;;4.17;;
4053;SDS011;2042;47.956;9.222;2024-01-07T14:16:13;9.60;;;5.93;;
4053;SDS011;2042;47.956;9.222;2024-01-07T14:18:39;5.60;;;4.30;;
4053;SDS011;2042;47.956;9.222;2024-01-07T14:21:05;5.67;;;4.30;;
4053;SDS011;2042;47.956;9.222;2024-01-07T14:23:32;6.63;;;5.07;;
4053;SDS011;2042;47.956;9.222;2024-01-07T14:25:59;7.57;;;5.50;;
4053;SDS011;2042;47.956;9.222;2024-01-07T14:28:24;6.53;;;4.23;;
4053;SDS011;2042;47.956;9.222;2024-01-07T14:30:50;6.77;;;4.37;;
4053;SDS011;2042;47.956;9.222;2024-01-07T14:33:16;5.40;;;4.30;;
4053;SDS011;2042;47.956;9.222;2024-01-07T14:35:41;9.37;;;5.30;;
4053;SDS011;2042;47.956;9.222;2024-01-07T14:38:07;8.80;;;5.50;;
4053;SDS011;2042;47.956;9.222;2024-01-07T14:40:33;9.20;;;4.33;;
4053;SDS011;2042;47.956;9.222;2024-01-07T14:42:59;5.40;;;4.53;;
4053;SDS011;2042;47.956;9.222;2024-01-07T14:45:25;10.23;;;4.80;;
4053;SDS011;2042;47.956;9.222;2024-01-07T14:47:52;6.13;;;4.50;;
4053;SDS011;2042;47.956;9.222;2024-01-07T14:50:18;6.73;;;5.47;;
4053;SDS011;2042;47.956;9.222;2024-01-07T14:52:44;6.00;;;4.13;;
4053;SDS011;2042;47.956;9.222;2024-01-07T14:55:10;6.87;;;4.87;;
4053;SDS011;2042;47.956;9.222;2024-01-07T14:57:37;7.97;;;5.53;;
4053;SDS011;2042;47.956;9.222;2024-01-07T15:00:04;6.37;;;4.93;;
4053;SDS011;2042;47.956;9.222;2024-01-07T15:02:31;9.00;;;5.23;;
4053;SDS011;2042;47.956;9.222;2024-01-07T15:04:56;7.83;;;5.20;;
4053;SDS011;2042;47.956;9.222;2024-01-07T15:07:22;7.37;;;4.60;;
4053;SDS011;2042;47.956;9.222;2024-01-07T15:09:48;9.10;;;6.33;;
4053;SDS011;2042;47.956;9.222;2024-01-07T15:12:14;6.17;;;4.50;;
4053;SDS011;2042;47.956;9.222;2024-01-07T15:14:40;7.63;;;5.00;;